This is the latest recevied weather packets stored in our database for station/object DG2MCM-11. If no packets are shown the sender has not sent any weather packets the latest 10 day(s).
| Time | Temp. | Humidity | Pressure | Rain* | Wind** | Luminosity | Snow |
|---|---|---|---|---|---|---|---|
| 1777408109 | 12.78° C | 53% | 1017.6 hPa | 0 mm | - | - | - |
| 1777405703 | 14.44° C | 44% | 1017.2 hPa | 0 mm | - | - | - |
| 1777405101 | 14.44° C | 44% | 1017.1 hPa | 0 mm | - | - | - |
| 1777404495 | 14.44° C | 43% | 1017 hPa | 0 mm | - | - | - |
| 1777403893 | 15° C | 42% | 1016.8 hPa | 0 mm | - | - | - |
| 1777401488 | 15.56° C | 42% | 1016.1 hPa | 0 mm | - | - | - |
| 1777400225 | 16.11° C | 39% | 1015.6 hPa | 0 mm | - | - | - |
| 1777399780 | 16.11° C | 39% | 1015.6 hPa | 0 mm | - | - | - |
| 1777397975 | 17.22° C | 38% | 1015 hPa | 0 mm | - | - | - |
| 1777396172 | 18.33° C | 37% | 1014.5 hPa | 0 mm | - | - | - |
| 1777392564 | 20° C | 37% | 1013.8 hPa | 0 mm | - | - | - |
| 1777391361 | 20.56° C | 35% | 1013.5 hPa | 0 mm | - | - | - |
| 1777390759 | 20.56° C | 35% | 1013.4 hPa | 0 mm | - | - | - |
| 1777390158 | 21.11° C | 35% | 1013.2 hPa | 0 mm | - | - | - |
| 1777389556 | 21.67° C | 35% | 1012.9 hPa | 0 mm | - | - | - |
| 1777388953 | 22.22° C | 35% | 1012.9 hPa | 0 mm | - | - | - |
| 1777388352 | 22.22° C | 34% | 1012.8 hPa | 0 mm | - | - | - |
| 1777387149 | 22.22° C | 34% | 1012.7 hPa | 0 mm | - | - | - |
| 1777384142 | 23.89° C | 33% | 1012.8 hPa | 0 mm | - | - | - |
| 1777383539 | 23.33° C | 33% | 1013 hPa | 0 mm | - | - | - |
| 1777382337 | 23.89° C | 31% | 1013 hPa | 0 mm | - | - | - |
| 1777381735 | 25° C | 31% | 1012.8 hPa | 0 mm | - | - | - |
| 1777381133 | 24.44° C | 30% | 1012.9 hPa | 0 mm | - | - | - |
| 1777376984 | 27.22° C | 28% | 1012.5 hPa | 0 mm | - | - | - |
| 1777376382 | 25.56° C | 31% | 1013.2 hPa | 0 mm | - | - | - |
* Rain latest hour (hover to see other rain measurements)
** Current wind speed in m/s (hover to see current wind gust speed)